Time;durP1;ratioP1;P1;durP2;ratioP2;P2;SDS_P1;SDS_P2;PMS_P1;PMS_P2;Temp;Humidity;BMP_temperature;BMP_pressure;BME280_temperature;BME280_humidity;BME280_pressure;Samples;Min_cycle;Max_cycle;Signal;HPM_P1;HPM_P2
2021/07/11 00:00:15;;;;;;;13.03;10.93;;;19.90;99.90;;;;;;6184286;23;20402;-49
2021/07/11 00:02:42;;;;;;;12.70;10.83;;;19.90;99.90;;;;;;6184111;23;20393;-51
2021/07/11 00:05:11;;;;;;;13.87;12.47;;;19.90;99.90;;;;;;6183731;23;20413;-50
2021/07/11 00:07:38;;;;;;;13.90;12.40;;;19.90;99.90;;;;;;6183840;23;20417;-50
2021/07/11 00:10:09;;;;;;;12.80;11.10;;;19.80;99.90;;;;;;6183627;23;20430;-48
2021/07/11 00:12:36;;;;;;;14.27;12.50;;;19.80;99.90;;;;;;6183724;23;20390;-50
2021/07/11 00:15:06;;;;;;;13.07;11.60;;;19.80;99.90;;;;;;6183565;23;20477;-49
2021/07/11 00:17:33;;;;;;;12.13;10.73;;;19.80;99.90;;;;;;6183292;23;20441;-48
2021/07/11 00:20:00;;;;;;;15.53;13.93;;;19.80;99.90;;;;;;6184350;23;20721;-50
2021/07/11 00:22:26;;;;;;;12.70;11.03;;;19.80;99.90;;;;;;6183839;23;20421;-49
2021/07/11 00:24:53;;;;;;;13.90;11.47;;;19.70;99.90;;;;;;6183473;23;20442;-46
2021/07/11 00:27:24;;;;;;;14.90;11.30;;;19.70;99.90;;;;;;6184028;23;20414;-46
2021/07/11 00:29:50;;;;;;;13.30;11.90;;;19.70;99.90;;;;;;6184210;23;20426;-50
2021/07/11 00:32:17;;;;;;;14.80;11.33;;;19.60;99.90;;;;;;6184236;23;20433;-52
2021/07/11 00:34:44;;;;;;;14.53;12.03;;;19.60;99.90;;;;;;6184585;23;20394;-51
2021/07/11 00:37:10;;;;;;;14.07;11.83;;;19.60;99.90;;;;;;6184379;23;20405;-52
2021/07/11 00:39:37;;;;;;;12.77;10.30;;;19.60;99.90;;;;;;6183985;23;20414;-49
2021/07/11 00:42:04;;;;;;;13.83;11.47;;;19.50;99.90;;;;;;6183867;23;20390;-52
2021/07/11 00:44:32;;;;;;;16.33;12.23;;;19.50;99.90;;;;;;6183104;23;20425;-53
2021/07/11 00:46:59;;;;;;;12.60;11.30;;;19.50;99.90;;;;;;6182784;23;20429;-49
2021/07/11 00:49:26;;;;;;;13.70;11.10;;;19.50;99.90;;;;;;6182865;23;20441;-48
2021/07/11 00:51:53;;;;;;;13.70;10.97;;;19.50;99.90;;;;;;6182870;23;20406;-51
2021/07/11 00:54:21;;;;;;;13.70;11.50;;;19.40;99.90;;;;;;6183492;23;20456;-47
2021/07/11 00:56:48;;;;;;;11.53;10.33;;;19.40;99.90;;;;;;6183199;23;20402;-50
2021/07/11 00:59:18;;;;;;;14.13;11.50;;;19.40;99.90;;;;;;6183744;23;20425;-52
2021/07/11 01:01:51;;;;;;;13.63;10.40;;;19.40;99.90;;;;;;6183080;23;20386;-52
2021/07/11 01:04:26;;;;;;;15.43;10.77;;;19.30;99.90;;;;;;6182330;23;20387;-51
2021/07/11 01:06:58;;;;;;;13.03;10.37;;;19.30;99.90;;;;;;6182249;23;20386;-52
2021/07/11 01:09:28;;;;;;;11.97;10.87;;;19.30;99.90;;;;;;6182715;23;20398;-51
2021/07/11 01:12:01;;;;;;;14.27;12.10;;;19.30;99.90;;;;;;6183541;23;20417;-50
2021/07/11 01:14:30;;;;;;;14.37;11.70;;;19.20;99.90;;;;;;6183243;23;20441;-50
2021/07/11 01:16:59;;;;;;;13.00;11.60;;;19.20;99.90;;;;;;6182499;23;20398;-50
2021/07/11 01:19:40;;;;;;;13.13;11.43;;;19.20;99.90;;;;;;6182312;23;20466;-52
2021/07/11 01:22:13;;;;;;;12.30;11.00;;;19.20;99.90;;;;;;6182732;23;20366;-49
2021/07/11 01:24:49;;;;;;;13.07;9.63;;;19.10;99.90;;;;;;6182597;23;20430;-48
2021/07/11 01:27:18;;;;;;;15.07;11.63;;;19.10;99.90;;;;;;6183491;23;20417;-49
2021/07/11 01:29:46;;;;;;;13.07;10.77;;;19.10;99.90;;;;;;6183551;23;20421;-46
2021/07/11 01:32:14;;;;;;;15.90;11.43;;;19.10;99.90;;;;;;6183274;23;20398;-51
2021/07/11 01:34:43;;;;;;;12.77;11.47;;;19.10;99.90;;;;;;6182181;23;20440;-50
2021/07/11 01:37:10;;;;;;;12.10;10.90;;;19.10;99.90;;;;;;6182340;23;20378;-53
2021/07/11 01:39:38;;;;;;;17.07;11.10;;;19.10;99.90;;;;;;6182106;23;20425;-52
2021/07/11 01:42:05;;;;;;;15.93;11.77;;;19.10;99.90;;;;;;6181793;23;20742;-52
2021/07/11 01:44:36;;;;;;;11.90;10.40;;;19.00;99.90;;;;;;6181873;23;20398;-50
2021/07/11 10:09:42;;;;;;;4.13;3.80;;;39.70;37.90;;;;;;6139203;23;20467;-47
2021/07/11 11:29:37;;;;;;;5.03;4.43;;;33.60;44.20;;;;;;6158489;23;20459;-46
2021/07/11 11:37:16;;;;;;;4.43;4.03;;;33.40;43.10;;;;;;6127573;23;20467;-51
2021/07/11 11:39:42;;;;;;;4.70;4.30;;;33.30;43.80;;;;;;6128575;23;20402;-47
2021/07/11 11:42:09;;;;;;;4.50;4.10;;;33.20;46.40;;;;;;6128538;23;20403;-49
2021/07/11 11:44:37;;;;;;;4.83;4.07;;;33.10;45.00;;;;;;6128364;23;20410;-51
2021/07/11 11:47:04;;;;;;;5.70;4.30;;;33.00;45.70;;;;;;6129266;23;20403;-52
2021/07/11 11:49:33;;;;;;;4.57;3.13;;;32.90;44.80;;;;;;6128476;23;20532;-52
2021/07/11 11:52:01;;;;;;;5.63;3.77;;;32.90;42.80;;;;;;6128586;23;20406;-49
2021/07/11 11:54:31;;;;;;;3.40;3.10;;;32.90;43.30;;;;;;6131207;23;20850;-49
2021/07/11 11:56:58;;;;;;;4.70;4.30;;;32.80;43.20;;;;;;6138077;23;20415;-51
2021/07/11 11:59:26;;;;;;;3.27;3.00;;;32.60;44.30;;;;;;6162353;23;20521;-48
2021/07/11 12:01:58;;;;;;;3.20;2.90;;;32.60;43.30;;;;;;6130729;23;20419;-52
2021/07/11 12:04:28;;;;;;;7.73;3.60;;;32.70;43.80;;;;;;6147238;23;20402;-49
2021/07/11 12:06:55;;;;;;;4.93;3.57;;;32.60;42.70;;;;;;6154122;23;20409;-51
2021/07/11 12:09:25;;;;;;;3.40;3.10;;;32.50;43.80;;;;;;6153749;23;20418;-47
2021/07/11 12:11:57;;;;;;;3.80;3.50;;;32.40;43.20;;;;;;6153599;23;20398;-45
2021/07/11 12:14:24;;;;;;;3.83;3.50;;;32.40;42.80;;;;;;6154037;23;20409;-48
2021/07/11 12:16:58;;;;;;;4.10;3.70;;;32.40;43.80;;;;;;6153694;23;20403;-52
2021/07/11 12:19:26;;;;;;;4.37;3.80;;;32.20;44.60;;;;;;6153717;23;20387;-47
2021/07/11 12:21:54;;;;;;;4.70;3.63;;;32.10;44.10;;;;;;6153997;23;20386;-47
2021/07/11 12:24:25;;;;;;;3.63;3.33;;;32.00;45.40;;;;;;6153310;23;20426;-47
2021/07/11 12:26:54;;;;;;;5.10;3.67;;;32.00;44.20;;;;;;6153501;23;20371;-50
2021/07/11 12:30:05;;;;;;;4.07;3.67;;;32.00;45.00;;;;;;6153438;23;20406;-46
2021/07/11 12:32:44;;;;;;;3.87;3.57;;;32.00;45.30;;;;;;6128798;23;20387;-47
2021/07/11 12:35:11;;;;;;;4.30;3.67;;;31.90;47.80;;;;;;6127785;23;20414;-49
2021/07/11 12:50:44;;;;;;;3.33;3.03;;;31.40;46.10;;;;;;6154337;22;20452;-50
2021/07/11 12:53:17;;;;;;;9.90;5.27;;;31.50;47.20;;;;;;6211663;23;20427;-52
2021/07/11 12:55:45;;;;;;;4.00;3.60;;;31.60;46.70;;;;;;6211728;23;20449;-53
2021/07/11 12:58:16;;;;;;;4.00;3.40;;;31.60;46.30;;;;;;6211377;23;20416;-47
2021/07/11 13:00:44;;;;;;;4.03;3.57;;;31.50;47.70;;;;;;6210904;23;20479;-53
2021/07/11 13:03:14;;;;;;;4.83;4.33;;;31.50;48.80;;;;;;6211370;23;20409;-50
2021/07/11 13:05:43;;;;;;;3.90;3.60;;;31.50;48.40;;;;;;6211471;23;20403;-47
2021/07/11 13:08:12;;;;;;;3.33;3.13;;;31.40;49.10;;;;;;6192514;23;20488;-50
2021/07/11 13:10:40;;;;;;;5.10;4.07;;;31.50;49.00;;;;;;6187038;23;20413;-48
2021/07/11 13:13:08;;;;;;;3.70;3.40;;;31.50;46.40;;;;;;6185637;23;20409;-47
2021/07/11 13:15:36;;;;;;;4.60;4.20;;;31.50;47.60;;;;;;6185968;23;20401;-53
2021/07/11 13:18:03;;;;;;;4.50;4.10;;;31.50;48.40;;;;;;6186903;23;20405;-53
2021/07/11 13:20:30;;;;;;;4.10;3.70;;;31.50;49.10;;;;;;6186865;23;20437;-49
2021/07/11 13:22:58;;;;;;;5.33;4.00;;;31.50;49.20;;;;;;6184698;23;20416;-49
2021/07/11 13:25:25;;;;;;;5.10;3.60;;;31.50;48.30;;;;;;6186971;23;20463;-48
2021/07/11 13:27:52;;;;;;;4.50;3.90;;;31.40;48.60;;;;;;6186609;23;20850;-45
2021/07/11 13:30:24;;;;;;;4.90;3.90;;;31.40;47.30;;;;;;6187038;23;20467;-47
2021/07/11 13:32:51;;;;;;;3.80;3.50;;;31.40;49.50;;;;;;6187067;23;20393;-45
2021/07/11 13:59:39;;;;;;;4.97;4.50;;;30.80;47.50;;;;;;6145724;23;20596;-45
2021/07/11 14:02:05;;;;;;;4.30;4.00;;;30.80;49.00;;;;;;6187822;23;20429;-50
2021/07/11 14:04:32;;;;;;;4.10;3.80;;;30.60;50.30;;;;;;6184650;23;20431;-48
2021/07/11 14:06:59;;;;;;;4.13;3.70;;;30.50;47.80;;;;;;6186233;23;20404;-48
2021/07/11 14:09:25;;;;;;;4.93;3.60;;;30.50;48.20;;;;;;6185666;23;20443;-48
2021/07/11 14:11:52;;;;;;;4.37;3.97;;;30.50;49.00;;;;;;6185621;23;20421;-46
2021/07/11 14:14:19;;;;;;;4.77;4.37;;;30.50;48.60;;;;;;6186251;23;20408;-52
2021/07/11 14:16:47;;;;;;;3.90;3.60;;;30.60;49.30;;;;;;6186470;23;20404;-49
2021/07/11 14:19:13;;;;;;;3.80;3.40;;;30.70;49.00;;;;;;6186441;23;20401;-48
2021/07/11 14:21:40;;;;;;;4.30;3.97;;;30.70;48.60;;;;;;6186560;23;20436;-49
2021/07/11 14:24:07;;;;;;;4.80;4.30;;;30.70;49.50;;;;;;6185709;23;20475;-46
2021/07/11 14:26:34;;;;;;;7.47;5.27;;;30.80;49.50;;;;;;6185782;23;20409;-51
2021/07/11 14:29:01;;;;;;;5.00;4.00;;;30.80;49.30;;;;;;6185989;23;20413;-46
2021/07/11 14:31:28;;;;;;;3.87;3.57;;;30.90;47.20;;;;;;6186438;23;20732;-48
2021/07/11 14:33:56;;;;;;;6.70;6.10;;;30.90;47.10;;;;;;6186477;23;20463;-45
2021/07/11 14:36:24;;;;;;;9.40;5.93;;;31.10;48.70;;;;;;6186580;23;20768;-47
2021/07/11 14:38:51;;;;;;;4.17;3.77;;;31.10;48.70;;;;;;6188368;23;20444;-48
2021/07/11 14:41:17;;;;;;;7.73;5.27;;;31.10;48.40;;;;;;6188727;23;20436;-47
2021/07/11 14:43:44;;;;;;;5.17;4.57;;;31.10;48.40;;;;;;6188336;23;20535;-48
2021/07/11 14:46:11;;;;;;;5.20;4.70;;;31.00;49.10;;;;;;6188010;23;20843;-49
2021/07/11 14:48:37;;;;;;;4.93;4.47;;;30.90;49.60;;;;;;6188570;23;20743;-47
2021/07/11 14:51:06;;;;;;;11.60;10.40;;;30.90;50.00;;;;;;6188424;23;20413;-47
2021/07/11 14:53:32;;;;;;;6.90;6.30;;;30.80;49.10;;;;;;6188411;23;20412;-48
2021/07/11 14:55:59;;;;;;;14.70;13.20;;;30.70;50.30;;;;;;6188448;23;20524;-49
2021/07/11 14:58:26;;;;;;;7.77;7.07;;;30.60;50.50;;;;;;6188131;23;20405;-49
2021/07/11 15:00:52;;;;;;;8.60;7.80;;;30.50;50.20;;;;;;6187853;23;20791;-47
2021/07/11 15:03:19;;;;;;;5.40;4.90;;;30.40;50.30;;;;;;6188744;23;20405;-44
2021/07/11 15:05:46;;;;;;;5.00;4.60;;;30.30;49.50;;;;;;6188375;23;20467;-45
2021/07/11 15:08:13;;;;;;;7.30;6.10;;;30.10;50.30;;;;;;6188472;23;20417;-46
2021/07/11 15:10:40;;;;;;;5.10;4.60;;;30.10;49.70;;;;;;6188285;23;20396;-47
2021/07/11 15:13:07;;;;;;;5.17;4.07;;;30.10;49.80;;;;;;6188266;23;20400;-47
2021/07/11 15:15:34;;;;;;;10.07;7.00;;;30.10;49.50;;;;;;6188160;23;20412;-45
2021/07/11 15:18:04;;;;;;;6.13;3.97;;;30.10;50.10;;;;;;6187982;23;20420;-47
2021/07/11 15:20:30;;;;;;;4.60;4.20;;;30.10;49.20;;;;;;6188007;23;20499;-47
2021/07/11 15:22:57;;;;;;;5.70;5.20;;;30.00;49.20;;;;;;6188238;23;20728;-45
2021/07/11 15:25:26;;;;;;;5.33;4.83;;;30.10;51.00;;;;;;6188080;23;20689;-45
2021/07/11 15:27:52;;;;;;;4.87;4.47;;;30.00;50.30;;;;;;6188018;23;20409;-45
2021/07/11 15:30:20;;;;;;;5.97;5.47;;;30.00;50.20;;;;;;6187445;23;20404;-45
2021/07/11 15:32:47;;;;;;;7.07;4.53;;;30.00;50.80;;;;;;6187705;23;20860;-47
2021/07/11 15:35:16;;;;;;;6.37;5.30;;;30.00;49.90;;;;;;6187623;23;20420;-45
2021/07/11 15:37:42;;;;;;;4.80;4.40;;;29.90;50.60;;;;;;6188101;23;20413;-50
2021/07/11 15:40:11;;;;;;;8.93;3.90;;;29.90;49.90;;;;;;6188067;23;20404;-46
2021/07/11 15:42:40;;;;;;;4.30;3.90;;;29.80;50.20;;;;;;6187853;23;20448;-46
2021/07/11 15:45:08;;;;;;;4.17;3.80;;;29.80;50.00;;;;;;6187279;23;20405;-47
2021/07/11 15:47:35;;;;;;;5.77;5.20;;;29.70;50.20;;;;;;6191781;23;20417;-48
2021/07/11 16:12:24;;;;;;;5.10;4.70;;;29.10;51.30;;;;;;6110328;23;20432;31
2021/07/11 16:23:19;;;;;;;6.83;6.07;;;29.00;52.80;;;;;;6099378;23;20427;-56
2021/07/11 16:25:46;;;;;;;5.70;5.20;;;29.00;52.80;;;;;;6129257;23;20423;-49
2021/07/11 16:28:19;;;;;;;9.93;5.37;;;29.10;52.60;;;;;;6130895;23;20415;-48
2021/07/11 16:30:46;;;;;;;6.00;4.77;;;29.00;52.20;;;;;;6130650;23;20379;-46
2021/07/11 16:33:12;;;;;;;9.03;6.33;;;29.00;51.90;;;;;;6128760;23;20733;-51
2021/07/11 17:36:32;;;;;;;7.17;6.47;;;28.00;56.40;;;;;;6100521;23;20388;31
2021/07/11 19:04:56;;;;;;;10.30;9.20;;;26.20;65.10;;;;;;6167460;23;20455;-51
2021/07/11 19:07:23;;;;;;;9.43;8.53;;;26.10;65.10;;;;;;6144954;23;20691;-51
2021/07/11 19:09:50;;;;;;;10.10;8.47;;;26.10;65.60;;;;;;6157342;23;20394;-52
2021/07/11 20:11:51;;;;;;;40.13;27.10;;;25.30;73.90;;;;;;6072890;23;20572;-50
2021/07/11 20:14:19;;;;;;;21.23;14.97;;;25.30;74.70;;;;;;6191025;23;20449;-52
2021/07/11 20:30:15;;;;;;;7.53;6.93;;;25.10;79.10;;;;;;6085308;23;21703;-45
2021/07/11 21:38:08;;;;;;;13.97;8.20;;;24.10;99.90;;;;;;6139677;23;20501;-50
2021/07/11 21:40:36;;;;;;;8.70;6.87;;;24.10;99.90;;;;;;6138473;23;20443;-47
2021/07/11 21:45:38;;;;;;;12.87;8.23;;;24.00;99.90;;;;;;6199752;23;20444;-49
2021/07/11 21:48:05;;;;;;;17.87;15.23;;;24.00;99.90;;;;;;6221001;23;20442;-49
2021/07/11 21:50:32;;;;;;;8.93;7.57;;;24.00;99.90;;;;;;6217928;23;20416;-48
2021/07/11 21:52:59;;;;;;;8.50;7.70;;;23.90;99.90;;;;;;6217774;23;20412;-47
2021/07/11 21:55:29;;;;;;;8.00;7.30;;;23.90;99.90;;;;;;6218272;23;20404;-47
2021/07/11 22:00:31;;;;;;;8.20;7.13;;;23.80;99.90;;;;;;6159000;23;20463;-48
2021/07/11 22:02:58;;;;;;;8.00;7.10;;;23.80;99.90;;;;;;6157299;23;20445;-52
2021/07/11 22:23:34;;;;;;;9.63;8.70;;;23.60;99.90;;;;;;6123983;23;20461;-51
2021/07/11 22:26:01;;;;;;;10.20;8.90;;;23.50;99.90;;;;;;6127230;23;20422;-51
2021/07/11 22:28:28;;;;;;;9.10;8.30;;;23.50;99.90;;;;;;6127154;23;20414;-48
2021/07/11 22:30:54;;;;;;;9.73;8.43;;;23.50;99.90;;;;;;6127136;23;20403;-53
2021/07/11 22:33:21;;;;;;;12.00;9.27;;;23.50;99.90;;;;;;6126760;23;20821;-47
2021/07/11 22:35:48;;;;;;;9.67;8.77;;;23.50;99.90;;;;;;6127210;23;20467;-46
2021/07/11 22:38:14;;;;;;;9.77;8.10;;;23.50;99.90;;;;;;6127134;23;20417;-45
2021/07/11 22:40:42;;;;;;;7.53;6.73;;;23.50;99.90;;;;;;6127191;23;20403;-54
2021/07/11 22:43:09;;;;;;;9.13;6.50;;;23.40;99.90;;;;;;6127062;23;20443;-52
2021/07/11 22:45:37;;;;;;;8.23;5.67;;;23.30;99.90;;;;;;6127075;23;20422;-48
2021/07/11 22:48:03;;;;;;;5.97;5.47;;;23.30;99.90;;;;;;6126823;23;20884;-48
2021/07/11 22:50:30;;;;;;;6.20;5.70;;;23.20;99.90;;;;;;6127013;23;20454;-48
2021/07/11 22:52:57;;;;;;;6.20;5.60;;;23.10;99.90;;;;;;6127145;23;20465;-51
2021/07/11 22:55:24;;;;;;;5.80;5.30;;;23.00;99.90;;;;;;6126724;23;20422;-53
2021/07/11 22:57:52;;;;;;;6.30;5.13;;;22.90;99.90;;;;;;6128390;23;20473;-53
2021/07/11 23:00:22;;;;;;;5.93;5.27;;;22.90;99.90;;;;;;6128621;23;20740;-48
2021/07/11 23:02:53;;;;;;;6.03;5.40;;;22.80;99.90;;;;;;6128426;23;20438;-51
2021/07/11 23:05:20;;;;;;;6.57;5.90;;;22.70;99.90;;;;;;6128980;23;20465;-45
2021/07/11 23:07:47;;;;;;;6.97;4.97;;;22.60;99.90;;;;;;6128814;23;20437;-48
2021/07/11 23:10:14;;;;;;;6.17;5.67;;;22.60;99.90;;;;;;6128904;23;20399;-48
2021/07/11 23:12:41;;;;;;;12.97;6.47;;;22.50;99.90;;;;;;6128405;23;20402;-52
2021/07/11 23:15:12;;;;;;;7.10;5.57;;;22.50;99.90;;;;;;6128767;23;20418;-52
2021/07/11 23:22:51;;;;;;;5.83;5.33;;;22.40;99.90;;;;;;6096977;23;20464;-49
2021/07/11 23:30:31;;;;;;;6.00;5.43;;;22.40;99.90;;;;;;6118098;23;20459;-47
2021/07/11 23:32:58;;;;;;;7.30;6.40;;;22.30;99.90;;;;;;6187970;23;20467;-51
2021/07/11 23:35:27;;;;;;;5.07;4.67;;;22.30;99.90;;;;;;6187686;23;20868;-46
2021/07/11 23:37:55;;;;;;;6.80;6.20;;;22.30;99.90;;;;;;6188772;23;20401;-48
